Time;durP1;ratioP1;P1;durP2;ratioP2;P2;SDS_P1;SDS_P2;PMS_P1;PMS_P2;Temp;Humidity;BMP_temperature;BMP_pressure;BME280_temperature;BME280_humidity;BME280_pressure;Samples;Min_cycle;Max_cycle;Signal;HPM_P1;HPM_P2
2022/07/15 00:01:17;;;;;;;9.82;3.05;;;12.20;99.90;;;;;;5072982;28;20511;-78
2022/07/15 00:03:42;;;;;;;7.07;2.42;;;12.10;99.90;;;;;;5089339;28;20086;-78
2022/07/15 00:06:08;;;;;;;8.02;2.88;;;12.10;99.90;;;;;;5072168;28;20438;-78
2022/07/15 00:08:35;;;;;;;7.20;2.88;;;12.10;99.90;;;;;;5073182;28;20068;-78
2022/07/15 00:11:00;;;;;;;4.03;2.80;;;12.10;99.90;;;;;;5049576;28;20074;-78
2022/07/15 00:13:26;;;;;;;7.25;3.20;;;12.20;99.90;;;;;;5080238;28;20461;-78
2022/07/15 00:15:52;;;;;;;8.63;2.88;;;12.10;99.90;;;;;;5082415;28;20043;-78
2022/07/15 00:18:18;;;;;;;9.88;2.80;;;12.10;99.90;;;;;;5064741;28;20062;-78
2022/07/15 00:20:44;;;;;;;5.43;2.67;;;12.10;99.90;;;;;;5042165;28;20031;-78
2022/07/15 00:23:10;;;;;;;7.25;2.70;;;12.10;99.90;;;;;;5092504;28;20063;-78
2022/07/15 00:25:36;;;;;;;6.68;3.13;;;12.10;99.90;;;;;;5058605;28;20533;-78
2022/07/15 00:28:07;;;;;;;9.30;3.10;;;12.10;99.90;;;;;;5075285;28;20040;-78
2022/07/15 00:30:39;;;;;;;8.23;3.13;;;12.10;99.90;;;;;;5085749;28;20057;-78
2022/07/15 00:33:05;;;;;;;13.00;3.10;;;12.10;99.90;;;;;;5086633;28;20127;-78
2022/07/15 00:35:32;;;;;;;5.28;2.50;;;12.10;99.90;;;;;;5065570;28;20088;-78
2022/07/15 00:37:59;;;;;;;8.60;3.15;;;12.10;99.90;;;;;;5046373;28;20426;-78
2022/07/15 00:40:25;;;;;;;5.57;2.40;;;12.10;99.90;;;;;;5085651;28;20120;-77
2022/07/15 00:42:51;;;;;;;8.65;2.88;;;12.10;99.90;;;;;;5074976;28;20042;-78
2022/07/15 00:45:19;;;;;;;12.13;3.22;;;12.10;99.90;;;;;;5057501;28;20110;-78
2022/07/15 00:47:47;;;;;;;6.20;2.80;;;12.20;99.90;;;;;;5085806;28;20036;-78
2022/07/15 00:50:14;;;;;;;5.47;2.72;;;12.20;99.90;;;;;;5072773;28;20063;-78
2022/07/15 00:52:43;;;;;;;7.97;2.90;;;12.20;99.90;;;;;;5073056;28;20032;-78
2022/07/15 00:55:12;;;;;;;8.30;2.75;;;12.20;99.90;;;;;;5090746;28;20067;-78
2022/07/15 00:57:42;;;;;;;6.65;2.42;;;12.30;99.90;;;;;;5076420;28;20032;-78
2022/07/15 01:00:12;;;;;;;8.80;3.42;;;12.30;99.90;;;;;;5071394;28;20043;-78
2022/07/15 01:02:40;;;;;;;6.15;2.30;;;12.30;99.90;;;;;;5073437;28;20509;-78
2022/07/15 01:05:07;;;;;;;8.85;3.17;;;12.30;99.90;;;;;;5073292;28;20047;-78
2022/07/15 01:07:34;;;;;;;4.93;2.22;;;12.30;99.90;;;;;;5065511;28;20419;-78
2022/07/15 01:10:00;;;;;;;9.63;2.50;;;12.30;99.90;;;;;;5087952;28;20119;-78
2022/07/15 01:12:27;;;;;;;6.85;2.67;;;12.40;99.90;;;;;;5056491;28;20130;-78
2022/07/15 01:14:53;;;;;;;6.07;2.45;;;12.40;99.90;;;;;;5071118;28;20035;-78
2022/07/15 01:17:19;;;;;;;6.65;2.50;;;12.40;99.90;;;;;;5090315;28;20032;-78
2022/07/15 01:19:45;;;;;;;7.63;2.45;;;12.40;99.90;;;;;;5094060;28;20126;-78
2022/07/15 01:22:10;;;;;;;10.18;2.40;;;12.40;99.90;;;;;;5094495;28;20027;-78
2022/07/15 01:24:37;;;;;;;10.75;3.20;;;12.40;99.90;;;;;;5094433;28;20039;-78
2022/07/15 01:27:03;;;;;;;5.22;2.35;;;12.40;99.90;;;;;;5077141;28;20074;-78
2022/07/15 01:29:29;;;;;;;7.05;2.92;;;12.40;99.90;;;;;;5094533;28;20705;-78
2022/07/15 01:31:55;;;;;;;8.05;2.85;;;12.40;99.90;;;;;;5076997;28;20172;-78
2022/07/15 01:34:21;;;;;;;11.23;3.40;;;12.40;99.90;;;;;;5094563;28;20077;-78
2022/07/15 01:36:47;;;;;;;7.82;2.40;;;12.40;99.90;;;;;;5060083;28;20054;-78
2022/07/15 01:39:13;;;;;;;15.25;3.35;;;12.40;99.90;;;;;;5074347;28;20035;-78
2022/07/15 01:41:38;;;;;;;9.98;2.58;;;12.40;99.90;;;;;;5076734;28;20404;-78
2022/07/15 01:44:04;;;;;;;7.97;2.83;;;12.40;99.90;;;;;;5093341;28;20031;-78
2022/07/15 01:46:30;;;;;;;10.63;3.05;;;12.40;99.90;;;;;;5072893;28;20127;-78
2022/07/15 01:51:40;;;;;;;8.85;2.60;;;12.40;99.90;;;;;;5091851;28;20044;-78
2022/07/15 01:54:06;;;;;;;10.32;2.53;;;12.40;99.90;;;;;;5075018;28;20481;-78
2022/07/15 01:56:32;;;;;;;10.93;2.90;;;12.40;99.90;;;;;;5044394;28;20038;-78
2022/07/15 01:58:58;;;;;;;9.98;2.75;;;12.40;99.90;;;;;;5093309;28;20156;-78
2022/07/15 02:01:24;;;;;;;7.20;2.33;;;12.40;99.90;;;;;;5091251;28;20044;-78
2022/07/15 02:03:50;;;;;;;6.63;2.40;;;12.50;99.90;;;;;;5076004;28;20105;-78
2022/07/15 02:06:16;;;;;;;10.73;2.70;;;12.50;99.90;;;;;;5076385;28;20040;-78
2022/07/15 02:08:42;;;;;;;9.40;2.75;;;12.40;99.90;;;;;;5076377;28;20035;-78
2022/07/15 02:11:08;;;;;;;16.15;3.45;;;12.50;99.90;;;;;;5093889;28;20481;-78
2022/07/15 02:13:33;;;;;;;6.57;2.83;;;12.40;99.90;;;;;;5056367;28;20585;-78
2022/07/15 02:15:59;;;;;;;8.65;2.88;;;12.40;99.90;;;;;;5077074;28;20027;-78
2022/07/15 02:18:25;;;;;;;4.75;2.85;;;12.40;99.90;;;;;;5076076;28;20040;-78
2022/07/15 02:20:51;;;;;;;11.10;2.78;;;12.40;99.90;;;;;;5060584;28;20046;-78
2022/07/15 02:23:17;;;;;;;13.60;2.50;;;12.40;99.90;;;;;;5073597;28;20400;-78
2022/07/15 02:25:43;;;;;;;11.35;2.63;;;12.40;99.90;;;;;;5076941;28;20039;-78
2022/07/15 02:28:09;;;;;;;8.93;2.90;;;12.30;99.90;;;;;;5075651;28;20043;-78
2022/07/15 02:30:39;;;;;;;7.70;2.50;;;12.30;99.90;;;;;;5076518;28;20409;-78
2022/07/15 02:33:06;;;;;;;7.72;3.00;;;12.30;99.90;;;;;;5075810;28;20067;-78
2022/07/15 02:35:32;;;;;;;7.35;2.85;;;12.30;99.90;;;;;;5074127;28;20039;-78
2022/07/15 02:37:59;;;;;;;9.00;2.53;;;12.20;99.90;;;;;;5074964;28;20598;-78
2022/07/15 02:40:25;;;;;;;7.43;2.88;;;12.20;99.90;;;;;;5072820;28;20035;-78
2022/07/15 02:42:53;;;;;;;9.52;2.80;;;12.20;99.90;;;;;;5072910;28;20051;-78
2022/07/15 02:45:21;;;;;;;8.90;2.80;;;12.20;99.90;;;;;;5091606;28;20044;-79
2022/07/15 02:47:47;;;;;;;9.60;2.88;;;12.10;99.90;;;;;;5089974;28;20118;-78
2022/07/15 02:50:14;;;;;;;7.93;3.15;;;12.10;99.90;;;;;;5054567;28;20043;-78
2022/07/15 02:52:40;;;;;;;8.23;3.00;;;12.10;99.90;;;;;;5057826;28;20046;-78
2022/07/15 02:55:07;;;;;;;8.90;3.63;;;12.10;99.90;;;;;;5075168;28;20036;-78
2022/07/15 02:57:33;;;;;;;10.60;2.92;;;12.10;99.90;;;;;;5075725;28;20039;-78
2022/07/15 02:59:58;;;;;;;11.80;3.13;;;12.10;99.90;;;;;;5043388;28;20408;-78
2022/07/15 03:02:25;;;;;;;8.70;2.90;;;12.00;99.90;;;;;;5066726;28;20055;-78
2022/07/15 03:04:51;;;;;;;10.10;2.88;;;12.00;99.90;;;;;;5074496;28;20063;-78
2022/07/15 03:07:16;;;;;;;11.85;2.53;;;11.90;99.90;;;;;;5058588;28;20164;-78
2022/07/15 03:09:42;;;;;;;6.57;2.70;;;11.90;99.90;;;;;;5075321;28;20032;-77
2022/07/15 03:12:08;;;;;;;8.75;2.60;;;11.90;99.90;;;;;;5075029;28;20500;-77
2022/07/15 03:14:33;;;;;;;7.00;3.33;;;11.80;99.90;;;;;;5059067;28;20114;-78
2022/07/15 03:16:59;;;;;;;6.22;2.80;;;11.80;99.90;;;;;;5073898;28;20039;-78
2022/07/15 03:19:25;;;;;;;8.90;3.00;;;11.80;99.90;;;;;;5055955;28;20255;-78
2022/07/15 03:21:51;;;;;;;7.03;2.83;;;11.70;99.90;;;;;;5057552;28;20035;-78
2022/07/15 03:24:17;;;;;;;12.68;3.33;;;11.70;99.90;;;;;;5057943;28;20047;-78
2022/07/15 03:26:43;;;;;;;12.35;3.50;;;11.60;99.90;;;;;;5051828;28;20070;-78
2022/07/15 03:29:09;;;;;;;10.02;3.25;;;11.60;99.90;;;;;;5073416;28;20088;-78
2022/07/15 03:31:35;;;;;;;10.18;3.10;;;11.60;99.90;;;;;;5091546;28;20059;-78
2022/07/15 03:34:01;;;;;;;11.82;3.20;;;11.60;99.90;;;;;;5044518;28;20035;-78
2022/07/15 03:36:27;;;;;;;10.65;3.00;;;11.60;99.90;;;;;;5055733;28;20039;-78
2022/07/15 03:38:54;;;;;;;8.68;2.95;;;11.60;99.90;;;;;;5069943;28;20088;-78
2022/07/15 03:41:21;;;;;;;10.48;3.53;;;11.60;99.90;;;;;;5073707;28;20079;-78
2022/07/15 03:43:46;;;;;;;9.43;3.25;;;11.50;99.90;;;;;;5091296;28;20038;-77
2022/07/15 03:46:15;;;;;;;9.60;2.88;;;11.50;99.90;;;;;;5073607;28;20035;-78
2022/07/15 03:48:41;;;;;;;9.57;3.15;;;11.50;99.90;;;;;;5091090;28;20043;-78
2022/07/15 03:51:07;;;;;;;8.52;2.78;;;11.50;99.90;;;;;;5090463;28;20035;-78
2022/07/15 03:53:33;;;;;;;8.57;2.60;;;11.50;99.90;;;;;;5089803;28;20392;-78
2022/07/15 03:55:58;;;;;;;8.98;2.88;;;11.40;99.90;;;;;;5084953;28;20039;-78
2022/07/15 03:58:24;;;;;;;11.00;3.40;;;11.40;99.90;;;;;;5072609;28;20035;-78
2022/07/15 04:00:50;;;;;;;10.40;3.20;;;11.40;99.90;;;;;;5073811;28;20048;-78
2022/07/15 04:03:16;;;;;;;8.57;3.00;;;11.40;99.90;;;;;;5073355;28;20063;-78
2022/07/15 04:05:43;;;;;;;10.38;2.95;;;11.40;99.90;;;;;;5073040;28;20455;-78
2022/07/15 04:08:09;;;;;;;7.07;2.95;;;11.40;99.90;;;;;;5054338;28;20036;-78
2022/07/15 04:10:35;;;;;;;8.07;3.05;;;11.40;99.90;;;;;;5090370;28;20118;-77
2022/07/15 04:13:01;;;;;;;8.13;2.78;;;11.40;99.90;;;;;;5056949;28;20119;-78
2022/07/15 04:15:28;;;;;;;11.98;3.47;;;11.40;99.90;;;;;;5058333;28;20115;-78
2022/07/15 04:17:54;;;;;;;12.00;3.13;;;11.40;99.90;;;;;;5080932;28;20092;-78
2022/07/15 04:20:20;;;;;;;8.93;3.55;;;11.40;99.90;;;;;;5062663;28;20036;-78
2022/07/15 04:22:49;;;;;;;10.02;3.20;;;11.40;99.90;;;;;;5067082;28;20063;-78
2022/07/15 04:25:18;;;;;;;11.20;3.33;;;11.50;99.90;;;;;;5055033;28;20469;-78
2022/07/15 04:27:45;;;;;;;7.45;3.67;;;11.50;99.90;;;;;;5086998;28;20028;-78
2022/07/15 04:30:12;;;;;;;7.85;3.08;;;11.50;99.90;;;;;;5079945;28;20500;-78
2022/07/15 04:32:38;;;;;;;8.57;3.40;;;11.50;99.90;;;;;;5055736;28;20370;-78
2022/07/15 04:35:05;;;;;;;9.88;2.95;;;11.50;99.90;;;;;;5055823;28;20040;-78
2022/07/15 04:37:31;;;;;;;10.75;2.97;;;11.50;99.90;;;;;;5080125;28;20039;-78
2022/07/15 04:39:56;;;;;;;8.88;3.15;;;11.50;99.90;;;;;;5047995;28;20036;-78
2022/07/15 04:42:22;;;;;;;8.77;3.50;;;11.50;99.90;;;;;;5075885;28;20454;-78
2022/07/15 04:44:49;;;;;;;8.20;3.33;;;11.50;99.90;;;;;;5086078;28;20121;-78
2022/07/15 04:47:15;;;;;;;9.20;3.17;;;11.50;99.90;;;;;;5060973;28;20032;-78
2022/07/15 04:52:26;;;;;;;9.88;2.83;;;11.60;99.90;;;;;;5063748;28;20044;-78
2022/07/15 04:54:52;;;;;;;9.10;2.60;;;11.30;99.90;;;;;;5062882;28;20398;-78
2022/07/15 04:57:18;;;;;;;8.52;2.72;;;11.60;99.90;;;;;;5062231;28;20037;-78
2022/07/15 04:59:44;;;;;;;6.45;3.00;;;11.70;99.90;;;;;;5058147;28;20460;-78
2022/07/15 05:02:10;;;;;;;11.18;3.35;;;11.70;99.90;;;;;;5068469;28;20483;-78
2022/07/15 05:04:35;;;;;;;9.52;3.13;;;11.80;99.90;;;;;;5071056;28;20126;-78
2022/07/15 05:07:01;;;;;;;7.18;2.85;;;11.80;99.90;;;;;;5068336;28;20044;-78
2022/07/15 05:09:27;;;;;;;7.88;2.80;;;11.80;99.90;;;;;;5078638;28;20455;-78
2022/07/15 05:11:53;;;;;;;8.52;2.95;;;11.90;99.90;;;;;;5064995;28;20031;-78
2022/07/15 05:14:19;;;;;;;8.38;2.75;;;12.00;99.90;;;;;;5061751;28;20043;-77
2022/07/15 05:16:45;;;;;;;8.65;2.92;;;12.00;99.90;;;;;;5078264;28;20035;-78
2022/07/15 05:19:11;;;;;;;8.20;2.92;;;12.10;99.90;;;;;;5061935;28;20040;-78
2022/07/15 05:21:37;;;;;;;12.23;2.55;;;12.10;99.90;;;;;;5061694;28;20031;-78
2022/07/15 05:24:03;;;;;;;10.23;3.28;;;12.20;99.90;;;;;;5095514;28;20038;-78
2022/07/15 05:26:29;;;;;;;9.07;2.60;;;12.30;99.90;;;;;;5078238;28;20377;-78
2022/07/15 05:28:55;;;;;;;8.55;2.78;;;12.30;99.90;;;;;;5094931;28;20089;-77
2022/07/15 05:31:22;;;;;;;9.07;2.17;;;12.40;99.90;;;;;;5066040;28;20117;-77
2022/07/15 05:33:48;;;;;;;9.82;3.08;;;12.40;99.90;;;;;;5073683;28;20125;-77
2022/07/15 05:36:15;;;;;;;7.68;2.35;;;12.50;99.90;;;;;;5068166;28;20028;-78
2022/07/15 05:38:42;;;;;;;6.75;2.13;;;12.60;99.90;;;;;;5076978;28;20565;-78
2022/07/15 05:41:08;;;;;;;10.63;2.65;;;12.60;99.90;;;;;;5068051;28;20039;-77
2022/07/15 05:43:35;;;;;;;6.22;2.40;;;12.70;99.90;;;;;;5063687;28;20047;-78
2022/07/15 05:46:01;;;;;;;5.90;2.15;;;12.70;99.90;;;;;;5083981;28;20122;-78
2022/07/15 05:48:27;;;;;;;6.63;2.45;;;12.80;99.90;;;;;;5071264;28;20119;-78
2022/07/15 05:50:53;;;;;;;7.18;1.90;;;12.80;99.90;;;;;;5077478;28;20118;-77
2022/07/15 05:53:18;;;;;;;6.20;1.92;;;12.90;99.90;;;;;;5094721;28;20090;-78
2022/07/15 05:55:44;;;;;;;6.07;2.08;;;12.90;99.90;;;;;;5094107;28;20039;-78
2022/07/15 05:58:10;;;;;;;4.75;1.92;;;13.00;99.90;;;;;;5068670;28;20166;-78
2022/07/15 06:00:37;;;;;;;5.85;1.92;;;13.00;99.90;;;;;;5057729;28;20505;-78
2022/07/15 06:03:04;;;;;;;6.80;1.85;;;13.10;99.90;;;;;;5088210;28;20035;-78
2022/07/15 06:05:30;;;;;;;3.92;1.95;;;13.10;99.90;;;;;;5058534;28;20071;-78
2022/07/15 06:07:56;;;;;;;2.97;1.40;;;13.30;99.90;;;;;;5070571;28;20469;-77
2022/07/15 06:10:22;;;;;;;5.93;1.65;;;13.30;99.90;;;;;;5099654;28;20032;-78
2022/07/15 06:12:48;;;;;;;7.13;1.60;;;13.30;99.90;;;;;;5084579;28;20122;-77
2022/07/15 06:15:14;;;;;;;7.20;1.92;;;13.30;99.90;;;;;;5060461;28;20135;-78
2022/07/15 06:17:41;;;;;;;6.25;1.50;;;13.30;99.90;;;;;;5075899;28;20035;-77
2022/07/15 06:20:07;;;;;;;4.38;1.63;;;13.30;99.90;;;;;;5082672;28;20032;-78
2022/07/15 06:22:34;;;;;;;4.63;1.70;;;13.30;99.90;;;;;;5079030;28;20066;-78
2022/07/15 06:25:00;;;;;;;5.28;1.83;;;13.30;99.90;;;;;;5062291;28;20075;-78
2022/07/15 06:27:25;;;;;;;8.70;2.03;;;13.40;99.90;;;;;;5042517;28;20059;-77
2022/07/15 06:29:52;;;;;;;4.63;1.40;;;13.40;99.90;;;;;;5059309;28;20557;-78
2022/07/15 06:32:18;;;;;;;3.97;1.52;;;13.50;99.90;;;;;;5072529;28;20883;-78
2022/07/15 06:34:44;;;;;;;4.22;1.55;;;13.50;99.90;;;;;;5084079;28;20035;-78
2022/07/15 06:37:10;;;;;;;4.45;1.27;;;13.50;99.90;;;;;;5052498;28;20074;-78
2022/07/15 06:39:36;;;;;;;3.28;1.23;;;13.50;99.90;;;;;;5108030;28;20465;-77
2022/07/15 06:42:02;;;;;;;3.25;1.58;;;13.50;99.90;;;;;;5086980;28;20118;-78
2022/07/15 06:44:28;;;;;;;1.73;1.00;;;13.70;99.90;;;;;;5083686;28;20047;-78
2022/07/15 06:46:54;;;;;;;3.15;1.27;;;13.70;99.90;;;;;;5070612;28;20043;-78
2022/07/15 06:49:20;;;;;;;5.30;2.05;;;13.80;99.90;;;;;;5068531;28;20050;-79
2022/07/15 06:51:45;;;;;;;3.20;0.90;;;13.90;99.90;;;;;;5056396;28;20039;-78
2022/07/15 06:54:11;;;;;;;5.00;1.10;;;14.00;99.90;;;;;;5054961;28;20473;-78
2022/07/15 06:56:38;;;;;;;3.55;1.10;;;14.10;99.90;;;;;;5084934;28;20031;-77
2022/07/15 06:59:04;;;;;;;3.30;1.25;;;14.30;99.90;;;;;;5074543;28;20036;-78
2022/07/15 07:01:30;;;;;;;1.55;0.90;;;14.40;99.90;;;;;;5076272;28;20039;-78
2022/07/15 07:03:56;;;;;;;4.68;1.00;;;14.50;99.90;;;;;;5070404;28;20043;-78
2022/07/15 07:06:22;;;;;;;1.20;0.88;;;14.60;99.90;;;;;;5073836;28;20035;-79
2022/07/15 07:08:48;;;;;;;5.82;0.95;;;14.80;99.90;;;;;;5057972;28;20044;-78
2022/07/15 07:11:15;;;;;;;6.78;1.20;;;14.90;99.90;;;;;;5067648;28;20077;-79
2022/07/15 07:13:41;;;;;;;1.85;0.77;;;15.00;99.90;;;;;;5049613;28;20044;-78
2022/07/15 07:16:07;;;;;;;3.97;1.10;;;15.20;99.90;;;;;;5073968;28;20031;-79
2022/07/15 07:18:33;;;;;;;4.57;1.30;;;15.30;99.90;;;;;;5059826;28;20698;-78
2022/07/15 07:20:59;;;;;;;3.78;1.05;;;15.40;99.90;;;;;;5062956;28;20031;-78
2022/07/15 07:23:26;;;;;;;3.75;1.23;;;15.50;99.90;;;;;;5062044;28;20047;-78
2022/07/15 07:25:55;;;;;;;6.65;1.13;;;15.50;99.90;;;;;;5090708;27;20039;-78
2022/07/15 07:28:21;;;;;;;4.38;0.90;;;15.50;99.90;;;;;;5040157;28;20040;-79
2022/07/15 07:30:49;;;;;;;2.75;1.00;;;15.60;99.90;;;;;;5049697;28;20062;-79
2022/07/15 07:33:15;;;;;;;2.67;0.98;;;15.70;99.90;;;;;;5071937;28;20097;-78
2022/07/15 07:35:42;;;;;;;5.13;1.48;;;15.70;99.90;;;;;;5076329;28;20085;-79
2022/07/15 07:38:08;;;;;;;2.75;0.85;;;15.80;99.90;;;;;;5055684;28;20040;-78
2022/07/15 07:40:34;;;;;;;4.25;1.17;;;15.80;99.90;;;;;;5043438;28;20261;-78
2022/07/15 07:43:00;;;;;;;4.70;1.23;;;15.90;99.90;;;;;;5049735;28;20603;-79
2022/07/15 07:45:28;;;;;;;3.13;1.20;;;16.00;99.90;;;;;;5053360;28;20035;-78
2022/07/15 07:47:57;;;;;;;3.47;1.30;;;16.00;99.90;;;;;;5048109;28;20040;-79
2022/07/15 07:50:23;;;;;;;4.03;0.95;;;16.10;99.90;;;;;;5056127;28;20118;-79
2022/07/15 07:52:49;;;;;;;7.05;0.77;;;16.10;99.90;;;;;;5076157;28;20600;-79
2022/07/15 07:55:14;;;;;;;4.70;1.33;;;16.20;99.90;;;;;;5055657;28;20051;-78
2022/07/15 07:57:51;;;;;;;3.92;1.17;;;16.30;99.90;;;;;;5059267;28;20036;-78
2022/07/15 08:00:18;;;;;;;3.03;1.10;;;16.30;99.90;;;;;;5080958;28;20046;-77
2022/07/15 08:02:44;;;;;;;5.95;1.00;;;16.60;99.90;;;;;;5075578;28;20427;-78
2022/07/15 08:05:10;;;;;;;3.28;0.90;;;16.70;99.90;;;;;;5069661;28;20039;-78
2022/07/15 08:07:36;;;;;;;0.98;0.65;;;16.80;99.90;;;;;;5051773;28;20130;-78
2022/07/15 08:10:06;;;;;;;2.47;0.70;;;16.90;99.90;;;;;;5061296;28;20135;-78
2022/07/15 08:12:33;;;;;;;3.05;1.20;;;17.00;99.90;;;;;;5092136;28;20126;-78
2022/07/15 08:14:59;;;;;;;2.78;0.98;;;17.10;99.90;;;;;;5061511;28;20039;-78
2022/07/15 08:17:25;;;;;;;2.10;0.77;;;17.10;99.90;;;;;;5066112;28;20385;-78
2022/07/15 08:19:51;;;;;;;5.28;1.05;;;17.00;99.90;;;;;;5070697;28;20039;-78
2022/07/15 08:22:17;;;;;;;4.53;1.42;;;17.00;99.90;;;;;;5092704;28;20032;-78
2022/07/15 08:24:42;;;;;;;3.92;1.08;;;17.10;99.90;;;;;;5045758;28;20043;-78
2022/07/15 08:27:08;;;;;;;1.83;0.90;;;17.10;99.90;;;;;;5076084;28;20036;-78
2022/07/15 08:29:34;;;;;;;3.03;0.90;;;17.00;99.90;;;;;;5092283;28;20405;-79
2022/07/15 08:32:00;;;;;;;3.65;0.70;;;16.90;99.90;;;;;;5061367;28;20403;-78
2022/07/15 08:34:26;;;;;;;3.03;1.15;;;16.80;99.90;;;;;;5058504;28;20512;-79
2022/07/15 08:36:52;;;;;;;2.40;1.17;;;17.00;99.90;;;;;;5044899;28;20044;-79
2022/07/15 08:39:18;;;;;;;1.48;0.65;;;17.30;99.90;;;;;;5068299;28;20370;-79
2022/07/15 08:41:44;;;;;;;2.25;0.70;;;17.50;99.90;;;;;;5085853;28;20493;-80
2022/07/15 08:44:10;;;;;;;2.80;0.68;;;17.80;99.90;;;;;;5074861;28;20122;-79
2022/07/15 08:46:37;;;;;;;2.38;0.98;;;18.00;99.90;;;;;;5075160;28;20043;-79
2022/07/15 08:49:12;;;;;;;3.05;0.73;;;18.30;99.90;;;;;;5061133;28;20042;-80
2022/07/15 08:51:42;;;;;;;2.30;0.60;;;18.70;99.90;;;;;;5092163;28;20084;-79
2022/07/15 08:54:08;;;;;;;3.65;0.60;;;18.80;99.90;;;;;;5074928;28;20036;-79
2022/07/15 08:56:35;;;;;;;5.20;1.10;;;18.60;99.90;;;;;;5085843;28;20043;-80
2022/07/15 08:59:03;;;;;;;4.22;1.05;;;18.50;99.90;;;;;;5084467;28;20035;-80
2022/07/15 09:01:30;;;;;;;2.38;0.70;;;18.30;99.90;;;;;;5087357;28;20123;-80
2022/07/15 09:03:56;;;;;;;0.85;0.57;;;18.10;99.90;;;;;;5065004;28;20062;-80
2022/07/15 09:06:40;;;;;;;1.60;0.63;;;18.00;99.90;;;;;;5074430;28;20462;-80
2022/07/15 09:09:31;;;;;;;1.67;0.70;;;17.80;99.90;;;;;;5081651;28;20051;-80
2022/07/15 09:12:02;;;;;;;2.25;0.70;;;17.70;99.90;;;;;;5079023;28;20032;-80
2022/07/15 09:14:29;;;;;;;3.20;1.00;;;17.90;99.90;;;;;;5078999;28;20044;-81
2022/07/15 09:17:09;;;;;;;1.95;0.50;;;18.30;99.90;;;;;;5091292;28;20035;-80
2022/07/15 09:19:58;;;;;;;2.15;0.80;;;18.60;99.90;;;;;;5062205;28;20119;-81
2022/07/15 09:22:25;;;;;;;4.13;0.95;;;18.50;99.90;;;;;;5089444;28;20046;-80
2022/07/15 09:25:01;;;;;;;6.25;1.40;;;18.40;99.90;;;;;;5069447;28;20048;-80
2022/07/15 09:27:29;;;;;;;1.45;1.10;;;18.40;99.90;;;;;;5080290;28;20112;-80
2022/07/15 09:38:11;;;;;;;1.52;0.43;;;18.40;99.90;;;;;;5075481;28;20100;-79
2022/07/15 09:40:48;;;;;;;3.20;0.77;;;18.30;99.90;;;;;;5077449;28;20032;-80
2022/07/15 09:43:14;;;;;;;5.07;1.10;;;18.20;99.90;;;;;;5093478;28;20593;-79
2022/07/15 09:45:40;;;;;;;1.52;0.40;;;18.10;99.90;;;;;;5062325;28;20047;-80
2022/07/15 09:48:12;;;;;;;2.17;0.65;;;18.00;99.90;;;;;;5084713;27;20035;-79
2022/07/15 09:50:38;;;;;;;1.65;0.65;;;18.00;99.90;;;;;;5088397;28;20040;-79
2022/07/15 09:53:10;;;;;;;2.50;0.70;;;17.90;99.90;;;;;;5101283;28;20120;-80
2022/07/15 09:55:36;;;;;;;1.30;0.60;;;17.80;99.90;;;;;;5094647;28;20043;-79
2022/07/15 09:58:05;;;;;;;1.00;0.65;;;17.80;99.90;;;;;;5080755;28;20028;-80
2022/07/15 10:00:31;;;;;;;11.10;7.50;;;17.90;99.90;;;;;;5095319;28;20032;-83
2022/07/15 10:02:57;;;;;;;1.10;0.68;;;18.00;99.90;;;;;;5073905;28;20032;-79
2022/07/15 10:05:24;;;;;;;3.45;0.82;;;18.10;99.90;;;;;;5079850;28;20036;-79
2022/07/15 10:07:56;;;;;;;2.70;0.70;;;18.20;99.90;;;;;;5061982;28;20039;-79
2022/07/15 10:10:23;;;;;;;2.88;0.93;;;18.50;99.90;;;;;;5101169;28;20043;-79
2022/07/15 10:13:12;;;;;;;1.77;0.80;;;19.00;99.90;;;;;;5097498;28;20057;-79
2022/07/15 10:16:03;;;;;;;2.50;0.88;;;19.20;99.90;;;;;;5086696;28;20093;-80
2022/07/15 10:19:11;;;;;;;0.50;0.50;;;19.30;98.60;;;;;;5094576;28;20031;-79
2022/07/15 10:22:01;;;;;;;1.33;0.55;;;19.10;98.40;;;;;;5045165;28;20039;-78
2022/07/15 10:24:53;;;;;;;3.22;0.70;;;18.80;99.10;;;;;;5096982;28;20040;-79
2022/07/15 10:27:47;;;;;;;1.73;0.33;;;18.60;99.00;;;;;;5098877;28;20040;-79
2022/07/15 10:30:19;;;;;;;1.92;0.63;;;18.50;99.40;;;;;;5095700;28;20508;-79
2022/07/15 10:33:03;;;;;;;1.42;0.75;;;18.40;99.80;;;;;;5096319;28;20796;-80
2022/07/15 10:35:46;;;;;;;3.63;2.38;;;18.30;99.70;;;;;;5085363;27;20077;-79
2022/07/15 10:38:37;;;;;;;1.77;1.35;;;18.30;99.70;;;;;;5100777;28;20107;-86
2022/07/15 10:41:14;;;;;;;2.08;0.60;;;18.30;99.60;;;;;;5081932;28;20035;-83
2022/07/15 10:43:43;;;;;;;2.05;0.60;;;18.40;99.90;;;;;;5080654;28;20043;-82
2022/07/15 10:46:20;;;;;;;3.00;0.70;;;18.50;99.90;;;;;;5099345;28;20044;-81
2022/07/15 10:48:52;;;;;;;1.92;0.43;;;18.50;99.30;;;;;;5089723;28;20039;-83
2022/07/15 10:51:36;;;;;;;1.60;0.68;;;18.60;99.10;;;;;;5069186;28;20484;-80
2022/07/15 10:54:07;;;;;;;3.10;0.60;;;18.70;98.90;;;;;;5057477;28;20580;-83
2022/07/15 10:56:36;;;;;;;1.73;0.57;;;18.70;99.30;;;;;;5075079;28;20036;-80
2022/07/15 10:59:10;;;;;;;0.68;0.52;;;18.90;99.20;;;;;;5066209;28;20039;-80
2022/07/15 11:01:38;;;;;;;2.13;0.60;;;19.00;98.90;;;;;;5083442;28;20131;-80
2022/07/15 11:04:24;;;;;;;2.05;0.50;;;19.10;99.10;;;;;;5049422;28;20074;-79
2022/07/15 11:07:07;;;;;;;1.23;0.75;;;19.30;99.20;;;;;;5058913;28;20508;-80
2022/07/15 11:09:50;;;;;;;1.55;0.70;;;19.70;98.40;;;;;;5088127;28;20042;-81
2022/07/15 11:12:21;;;;;;;0.68;0.68;;;20.20;98.40;;;;;;5078462;28;20039;-82
2022/07/15 11:14:49;;;;;;;2.88;0.75;;;20.50;98.30;;;;;;5087963;28;20047;-79
2022/07/15 11:17:18;;;;;;;1.80;0.60;;;20.70;97.60;;;;;;5054062;28;20036;-80
2022/07/15 11:19:49;;;;;;;1.15;0.32;;;20.80;97.10;;;;;;5053670;28;20036;-80
2022/07/15 11:22:20;;;;;;;4.28;0.55;;;20.90;96.80;;;;;;5057990;28;20031;-80
2022/07/15 11:24:46;;;;;;;2.25;0.52;;;20.80;96.90;;;;;;5061224;28;20408;-81
2022/07/15 11:27:13;;;;;;;3.70;0.70;;;20.60;96.90;;;;;;5087055;28;20501;-82
2022/07/15 11:29:51;;;;;;;0.70;0.70;;;20.40;96.70;;;;;;5052662;28;20594;-81
2022/07/15 11:32:20;;;;;;;1.92;0.70;;;20.30;96.90;;;;;;5088106;28;20108;-82
2022/07/15 11:34:51;;;;;;;0.88;0.70;;;20.20;97.50;;;;;;5071702;28;20039;-82
2022/07/15 11:37:20;;;;;;;1.42;0.55;;;20.20;97.00;;;;;;5062774;28;20051;-81
2022/07/15 11:39:48;;;;;;;1.35;0.70;;;20.10;97.50;;;;;;5088132;28;20374;-80
2022/07/15 11:45:08;;;;;;;1.55;0.60;;;20.10;97.50;;;;;;5088657;28;20051;-81
2022/07/15 11:47:34;;;;;;;0.80;0.50;;;20.00;97.40;;;;;;5066710;28;20107;-81
2022/07/15 11:50:04;;;;;;;1.60;0.80;;;20.10;97.40;;;;;;5079254;28;20527;-80
2022/07/15 11:52:30;;;;;;;1.90;0.60;;;20.10;97.20;;;;;;5068669;28;20090;-84
2022/07/15 11:54:56;;;;;;;1.52;0.60;;;20.40;97.70;;;;;;5070230;28;20036;-81
2022/07/15 11:57:23;;;;;;;5.25;0.85;;;20.80;97.60;;;;;;5063905;28;20040;-81
2022/07/15 11:59:57;;;;;;;2.97;0.75;;;21.10;96.90;;;;;;5091509;28;20036;-81
2022/07/15 12:02:28;;;;;;;1.48;0.63;;;21.20;95.80;;;;;;5092166;28;20084;-81
2022/07/15 12:05:08;;;;;;;3.92;0.57;;;21.10;95.60;;;;;;5061931;28;20519;-81
2022/07/15 12:07:41;;;;;;;3.47;1.20;;;20.90;95.50;;;;;;5063728;28;20126;-82
2022/07/15 12:10:08;;;;;;;0.60;0.43;;;20.60;94.70;;;;;;5056536;28;20054;-82
2022/07/15 12:12:33;;;;;;;2.22;0.85;;;20.40;94.90;;;;;;5066296;28;20081;-81
2022/07/15 12:15:00;;;;;;;4.90;0.85;;;20.20;95.30;;;;;;5090923;28;20089;-81
2022/07/15 12:17:26;;;;;;;1.85;0.95;;;20.00;95.60;;;;;;5080900;28;20047;-81
2022/07/15 12:19:58;;;;;;;4.10;0.95;;;19.90;96.00;;;;;;5079074;28;20044;-81
2022/07/15 12:22:24;;;;;;;;;;;19.90;96.30;;;;;;5045671;28;20040;-81
2022/07/15 12:24:51;;;;;;;4.57;0.73;;;19.80;96.60;;;;;;5080512;28;20459;-82
2022/07/15 12:27:18;;;;;;;1.27;0.80;;;19.80;96.70;;;;;;5074572;28;20050;-81
2022/07/15 12:29:44;;;;;;;3.65;0.73;;;19.80;96.70;;;;;;5093118;28;20525;-81
2022/07/15 12:32:13;;;;;;;0.82;0.63;;;19.80;97.00;;;;;;5089305;28;20075;-82
2022/07/15 12:34:52;;;;;;;2.17;0.75;;;19.80;96.90;;;;;;5075831;28;20046;-82
2022/07/15 12:37:50;;;;;;;2.17;1.02;;;19.80;96.40;;;;;;5077018;28;20042;-82
2022/07/15 12:40:23;;;;;;;2.63;0.82;;;19.80;96.60;;;;;;5090624;28;20180;-82
2022/07/15 12:42:51;;;;;;;2.35;1.00;;;19.80;96.60;;;;;;5079662;28;20039;-83
2022/07/15 12:45:21;;;;;;;1.48;0.73;;;19.80;96.30;;;;;;5062135;28;20040;-82
2022/07/15 12:48:02;;;;;;;1.65;0.57;;;19.80;96.60;;;;;;5084505;28;20502;-81
2022/07/15 12:50:32;;;;;;;2.13;0.70;;;19.80;96.90;;;;;;5071362;28;20039;-82
2022/07/15 12:52:58;;;;;;;2.17;1.05;;;19.80;97.10;;;;;;5078771;28;20036;-82
2022/07/15 12:55:27;;;;;;;3.60;1.20;;;19.80;97.20;;;;;;5075282;28;20096;-82
2022/07/15 12:58:04;;;;;;;3.72;1.00;;;19.90;97.50;;;;;;5055785;28;20036;-82
2022/07/15 13:00:30;;;;;;;1.23;0.70;;;20.00;96.90;;;;;;5082646;28;20461;-83
2022/07/15 13:03:13;;;;;;;0.98;0.70;;;20.00;97.10;;;;;;5073611;28;20489;-82
2022/07/15 13:05:45;;;;;;;1.83;0.93;;;20.20;96.80;;;;;;5082839;28;20039;-82
2022/07/15 13:08:23;;;;;;;2.20;0.73;;;20.30;96.50;;;;;;5088984;28;20537;-83